createdAt,value
2018-03-27T00:00:16.497Z,982.83
2018-03-27T00:01:15.156Z,982.80
2018-03-27T00:03:09.510Z,982.83
2018-03-27T00:04:08.083Z,982.82
2018-03-27T00:06:01.894Z,982.79
2018-03-27T00:07:01.084Z,982.77
2018-03-27T00:08:54.416Z,982.75
2018-03-27T00:09:55.371Z,982.76
2018-03-27T00:11:47.845Z,982.72
2018-03-27T00:12:46.926Z,982.73
2018-03-27T00:14:41.565Z,982.72
2018-03-27T00:15:40.708Z,982.76
2018-03-27T00:17:34.705Z,982.76
2018-03-27T00:18:35.213Z,982.72
2018-03-27T00:20:28.217Z,982.74
2018-03-27T00:21:27.982Z,982.71
2018-03-27T00:23:21.184Z,982.70
2018-03-27T00:24:20.257Z,982.75
2018-03-27T00:26:15.233Z,982.71
2018-03-27T00:27:13.399Z,982.75
2018-03-27T00:29:07.848Z,982.76
2018-03-27T00:30:08.084Z,982.77
2018-03-27T00:32:00.530Z,982.80
2018-03-27T00:32:59.081Z,982.80
2018-03-27T00:34:53.014Z,982.77
2018-03-27T00:35:52.137Z,982.80
2018-03-27T00:37:46.985Z,982.82
2018-03-27T00:38:46.604Z,982.84
2018-03-27T00:40:41.206Z,982.82
2018-03-27T00:41:39.723Z,982.83
2018-03-27T00:43:34.130Z,982.80
2018-03-27T00:44:32.466Z,982.79
2018-03-27T00:46:26.619Z,982.81
2018-03-27T00:47:25.746Z,982.78
2018-03-27T00:49:18.790Z,982.76
2018-03-27T00:50:19.255Z,982.75
2018-03-27T00:52:12.551Z,982.73
2018-03-27T00:53:12.019Z,982.74
2018-03-27T00:55:07.278Z,982.74
2018-03-27T00:56:06.677Z,982.78
2018-03-27T00:58:00.126Z,982.78
2018-03-27T00:58:58.871Z,982.79
2018-03-27T01:00:53.215Z,982.81
2018-03-27T01:01:53.603Z,982.79
2018-03-27T01:03:46.915Z,982.83
2018-03-27T01:04:46.861Z,982.83
2018-03-27T01:06:41.744Z,982.82
2018-03-27T01:07:41.160Z,982.82
2018-03-27T01:09:35.160Z,982.84
2018-03-27T01:10:35.114Z,982.84
2018-03-27T01:12:27.889Z,982.87
2018-03-27T01:13:26.990Z,982.86
2018-03-27T01:15:22.388Z,982.82
2018-03-27T01:16:21.474Z,982.84
2018-03-27T01:18:16.498Z,982.82
2018-03-27T01:19:14.550Z,982.80
2018-03-27T01:21:08.203Z,982.84
2018-03-27T01:22:07.401Z,982.89
2018-03-27T01:24:01.254Z,982.86
2018-03-27T01:25:01.066Z,982.89
2018-03-27T01:26:54.167Z,982.90
2018-03-27T01:27:53.210Z,982.90
2018-03-27T01:29:47.828Z,982.85
2018-03-27T01:30:46.884Z,982.85
2018-03-27T01:32:41.058Z,982.86
2018-03-27T01:33:39.177Z,982.81
2018-03-27T01:35:33.558Z,982.82
2018-03-27T01:36:32.134Z,982.85
2018-03-27T01:38:27.446Z,982.82
2018-03-27T01:39:26.782Z,982.77
2018-03-27T01:41:20.536Z,982.74
2018-03-27T01:42:20.397Z,982.75
2018-03-27T01:44:13.439Z,982.74
2018-03-27T01:45:12.565Z,982.66
2018-03-27T01:47:06.895Z,982.67
2018-03-27T01:48:05.486Z,982.69
2018-03-27T01:50:00.846Z,982.66
2018-03-27T01:51:01.047Z,982.67
2018-03-27T01:52:53.862Z,982.65
2018-03-27T01:53:53.157Z,982.67
2018-03-27T01:55:46.753Z,982.71
2018-03-27T01:56:46.026Z,982.71
2018-03-27T01:58:39.764Z,982.69
2018-03-27T01:59:39.673Z,982.68
2018-03-27T02:01:32.117Z,982.70
2018-03-27T02:02:32.008Z,982.67
2018-03-27T02:04:27.219Z,982.72
2018-03-27T02:05:26.895Z,982.74
2018-03-27T02:07:20.152Z,982.74
2018-03-27T02:08:19.496Z,982.74
2018-03-27T02:10:13.602Z,982.75
2018-03-27T02:11:12.332Z,982.72
2018-03-27T02:13:06.065Z,982.71
2018-03-27T02:14:05.320Z,982.74
2018-03-27T02:15:59.036Z,982.69
2018-03-27T02:16:58.341Z,982.73
2018-03-27T02:18:52.908Z,982.71
2018-03-27T02:19:51.081Z,982.74
2018-03-27T02:21:44.955Z,982.76
2018-03-27T02:22:44.100Z,982.74
2018-03-27T02:24:38.123Z,982.77
2018-03-27T02:25:36.971Z,982.76
2018-03-27T02:27:30.872Z,982.78
2018-03-27T02:28:30.060Z,982.77
2018-03-27T02:30:23.783Z,982.75
2018-03-27T02:31:23.007Z,982.69
2018-03-27T02:33:18.794Z,982.73
2018-03-27T02:34:18.707Z,982.73
2018-03-27T02:36:11.199Z,982.71
2018-03-27T02:37:10.314Z,982.69
2018-03-27T02:39:05.463Z,982.73
2018-03-27T02:40:03.907Z,982.74
2018-03-27T02:41:57.637Z,982.72
2018-03-27T02:42:56.850Z,982.70
2018-03-27T02:44:50.079Z,982.67
2018-03-27T02:45:49.638Z,982.66
2018-03-27T02:47:43.779Z,982.66
2018-03-27T02:48:43.791Z,982.65
2018-03-27T02:50:35.972Z,982.66
2018-03-27T02:51:35.790Z,982.65
2018-03-27T02:53:29.963Z,982.62
2018-03-27T02:54:28.618Z,982.58
2018-03-27T02:56:22.926Z,982.62
2018-03-27T02:57:21.581Z,982.56
2018-03-27T02:59:15.310Z,982.56
2018-03-27T03:00:14.364Z,982.59
2018-03-27T03:02:09.127Z,982.57
2018-03-27T03:03:07.680Z,982.58
2018-03-27T03:05:02.668Z,982.54
2018-03-27T03:06:02.513Z,982.52
2018-03-27T03:07:56.245Z,982.53
2018-03-27T03:08:55.271Z,982.56
2018-03-27T03:10:50.718Z,982.51
2018-03-27T03:11:51.194Z,982.55
2018-03-27T03:13:44.235Z,982.54
2018-03-27T03:14:43.560Z,982.54
2018-03-27T03:16:36.652Z,982.55
2018-03-27T03:17:35.889Z,982.54
2018-03-27T03:19:31.862Z,982.55
2018-03-27T03:20:31.074Z,982.57
2018-03-27T03:22:24.102Z,982.58
2018-03-27T03:23:23.201Z,982.58
2018-03-27T03:25:17.129Z,982.66
2018-03-27T03:26:16.994Z,982.65
2018-03-27T03:28:11.047Z,982.65
2018-03-27T03:29:10.259Z,982.64
2018-03-27T03:31:03.934Z,982.65
2018-03-27T03:32:03.740Z,982.65
2018-03-27T03:33:57.185Z,982.71
2018-03-27T03:34:56.090Z,982.66
2018-03-27T03:36:49.868Z,982.68
2018-03-27T03:37:50.314Z,982.72
2018-03-27T03:39:44.903Z,982.71
2018-03-27T03:40:43.619Z,982.71
2018-03-27T03:42:37.593Z,982.64
2018-03-27T03:43:36.476Z,982.68
2018-03-27T03:45:31.365Z,982.67
2018-03-27T03:46:29.631Z,982.65
2018-03-27T03:48:23.241Z,982.65
2018-03-27T03:49:22.298Z,982.70
2018-03-27T03:51:17.171Z,982.67
2018-03-27T03:52:15.592Z,982.66
2018-03-27T03:54:10.755Z,982.65
2018-03-27T03:55:09.938Z,982.65
2018-03-27T03:57:03.692Z,982.64
2018-03-27T03:58:02.731Z,982.64
2018-03-27T03:59:56.643Z,982.68
2018-03-27T04:00:56.556Z,982.70
2018-03-27T04:02:49.081Z,982.67
2018-03-27T04:03:48.625Z,982.66
2018-03-27T04:05:42.017Z,982.68
2018-03-27T04:06:41.938Z,982.63
2018-03-27T04:08:36.602Z,982.64
2018-03-27T04:09:35.419Z,982.64
2018-03-27T04:11:29.055Z,982.60
2018-03-27T04:12:29.682Z,982.61
2018-03-27T04:14:21.891Z,982.60
2018-03-27T04:15:21.073Z,982.66
2018-03-27T04:17:15.377Z,982.63
2018-03-27T04:18:14.439Z,982.64
2018-03-27T04:20:09.068Z,982.65
2018-03-27T04:21:07.961Z,982.64
2018-03-27T04:23:02.886Z,982.65
2018-03-27T04:24:00.920Z,982.68
2018-03-27T04:25:54.720Z,982.69
2018-03-27T04:26:55.133Z,982.67
2018-03-27T04:29:59.144Z,982.58
2018-03-27T04:31:53.336Z,982.60
2018-03-27T04:32:51.956Z,982.61
2018-03-27T04:34:47.849Z,982.59
2018-03-27T04:35:46.473Z,982.56
2018-03-27T04:37:40.771Z,982.54
2018-03-27T04:38:39.766Z,982.51
2018-03-27T04:40:34.445Z,982.51
2018-03-27T04:41:32.785Z,982.50
2018-03-27T04:43:26.716Z,982.48
2018-03-27T04:44:27.165Z,982.49
2018-03-27T04:45:25.879Z,982.50
2018-03-27T04:46:25.759Z,982.55
2018-03-27T04:47:27.449Z,982.53
2018-03-27T04:48:25.448Z,982.48
2018-03-27T04:49:25.391Z,982.48
2018-03-27T04:50:25.360Z,982.50
2018-03-27T04:51:25.298Z,982.49
2018-03-27T04:52:25.283Z,982.55
2018-03-27T04:53:25.236Z,982.53
2018-03-27T04:54:25.179Z,982.56
2018-03-27T04:55:25.187Z,982.54
2018-03-27T04:56:25.133Z,982.57
2018-03-27T04:57:25.115Z,982.49
2018-03-27T04:58:25.024Z,982.55
2018-03-27T04:59:24.996Z,982.57
2018-03-27T05:00:24.995Z,982.56
2018-03-27T05:01:24.940Z,982.57
2018-03-27T05:02:24.851Z,982.57
2018-03-27T05:03:24.796Z,982.63
2018-03-27T05:04:24.769Z,982.61
2018-03-27T05:05:24.755Z,982.66
2018-03-27T05:06:24.701Z,982.62
2018-03-27T05:07:24.662Z,982.64
2018-03-27T05:08:24.591Z,982.66
2018-03-27T05:09:24.537Z,982.65
2018-03-27T05:10:24.489Z,982.68
2018-03-27T05:11:24.495Z,982.67
2018-03-27T05:12:24.405Z,982.65
2018-03-27T05:13:24.386Z,982.65
2018-03-27T05:14:24.341Z,982.66
2018-03-27T05:15:24.292Z,982.66
2018-03-27T05:16:24.228Z,982.62
2018-03-27T05:17:24.202Z,982.64
2018-03-27T05:18:24.184Z,982.65
2018-03-27T05:19:24.137Z,982.59
2018-03-27T05:20:24.132Z,982.63
2018-03-27T05:21:24.041Z,982.61
2018-03-27T05:22:24.022Z,982.60
2018-03-27T05:23:23.943Z,982.56
2018-03-27T05:24:24.453Z,982.57
2018-03-27T05:25:23.851Z,982.67
2018-03-27T05:26:23.832Z,982.64
2018-03-27T05:27:23.755Z,982.63
2018-03-27T05:28:23.774Z,982.61
2018-03-27T05:29:23.675Z,982.63
2018-03-27T05:30:24.460Z,982.66
2018-03-27T05:31:23.694Z,982.71
2018-03-27T05:32:23.599Z,982.67
2018-03-27T05:33:23.549Z,982.63
2018-03-27T05:34:23.460Z,982.68
2018-03-27T05:35:23.502Z,982.64
2018-03-27T05:36:23.409Z,982.65
2018-03-27T05:37:23.354Z,982.66
2018-03-27T05:38:23.299Z,982.62
2018-03-27T05:39:23.964Z,982.63
2018-03-27T05:40:23.265Z,982.66
2018-03-27T05:41:23.239Z,982.66
2018-03-27T05:42:23.182Z,982.69
2018-03-27T05:43:23.081Z,982.70
2018-03-27T05:44:23.041Z,982.71
2018-03-27T05:45:23.160Z,982.67
2018-03-27T05:46:22.986Z,982.73
2018-03-27T05:47:22.908Z,982.70
2018-03-27T05:48:22.912Z,982.63
2018-03-27T05:49:22.886Z,982.68
2018-03-27T05:50:22.828Z,982.66
2018-03-27T05:51:22.794Z,982.64
2018-03-27T05:52:22.720Z,982.69
2018-03-27T05:53:22.707Z,982.70
2018-03-27T05:54:22.627Z,982.67
2018-03-27T05:55:22.610Z,982.68
2018-03-27T05:56:22.538Z,982.67
2018-03-27T05:57:22.500Z,982.73
2018-03-27T05:58:22.440Z,982.68
2018-03-27T05:59:22.408Z,982.68
2018-03-27T06:00:22.366Z,982.70
2018-03-27T06:01:22.333Z,982.68
2018-03-27T06:02:22.280Z,982.70
2018-03-27T06:03:22.252Z,982.69
2018-03-27T06:04:22.190Z,982.69
2018-03-27T06:05:22.183Z,982.68
2018-03-27T06:06:22.104Z,982.67
2018-03-27T06:07:22.075Z,982.69
2018-03-27T06:08:22.046Z,982.68
2018-03-27T06:09:21.986Z,982.72
2018-03-27T06:10:21.930Z,982.72
2018-03-27T06:11:21.917Z,982.77
2018-03-27T06:12:21.866Z,982.79
2018-03-27T06:13:21.823Z,982.80
2018-03-27T06:14:21.804Z,982.82
2018-03-27T06:15:21.740Z,982.86
2018-03-27T06:16:21.695Z,982.86
2018-03-27T06:17:21.667Z,982.85
2018-03-27T06:18:21.597Z,982.84
2018-03-27T06:19:21.553Z,982.86
2018-03-27T06:20:21.553Z,982.85
2018-03-27T06:21:21.474Z,982.84
2018-03-27T06:22:21.444Z,982.81
2018-03-27T06:23:21.413Z,982.76
2018-03-27T06:24:21.353Z,982.76
2018-03-27T06:25:21.302Z,982.76
2018-03-27T06:26:21.271Z,982.76
2018-03-27T06:27:21.272Z,982.75
2018-03-27T06:28:21.186Z,982.74
2018-03-27T06:29:21.177Z,982.75
2018-03-27T06:30:21.121Z,982.82
2018-03-27T06:31:21.069Z,982.78
2018-03-27T06:32:21.014Z,982.81
2018-03-27T06:33:20.983Z,982.84
2018-03-27T06:34:20.979Z,982.86
2018-03-27T06:35:20.901Z,982.83
2018-03-27T06:36:20.858Z,982.85
2018-03-27T06:37:20.827Z,982.81
2018-03-27T06:38:20.767Z,982.80
2018-03-27T06:39:20.778Z,982.83
2018-03-27T06:40:20.721Z,982.82
2018-03-27T06:41:20.649Z,982.79
2018-03-27T06:42:20.610Z,982.77
2018-03-27T06:43:20.574Z,982.78
2018-03-27T06:44:20.532Z,982.76
2018-03-27T06:45:20.498Z,982.75
2018-03-27T06:46:20.497Z,982.78
2018-03-27T06:47:20.428Z,982.77
2018-03-27T06:48:20.370Z,982.78
2018-03-27T06:49:20.337Z,982.78
2018-03-27T06:50:20.289Z,982.81
2018-03-27T06:51:20.255Z,982.80
2018-03-27T06:52:20.198Z,982.86
2018-03-27T06:53:20.147Z,982.84
2018-03-27T06:54:20.118Z,982.81
2018-03-27T06:55:20.089Z,982.82
2018-03-27T06:56:20.040Z,982.84
2018-03-27T06:57:20.006Z,982.82
2018-03-27T06:58:19.980Z,982.84
2018-03-27T06:59:19.974Z,982.91
2018-03-27T07:00:19.882Z,982.88
2018-03-27T07:01:20.475Z,982.84
2018-03-27T07:02:19.802Z,982.88
2018-03-27T07:03:19.796Z,982.86
2018-03-27T07:04:19.720Z,982.90
2018-03-27T07:05:19.846Z,982.85
2018-03-27T07:06:19.669Z,982.90
2018-03-27T07:07:19.603Z,982.87
2018-03-27T07:08:19.552Z,982.87
2018-03-27T07:09:19.533Z,982.89
2018-03-27T07:10:19.524Z,982.89
2018-03-27T07:11:19.574Z,982.89
2018-03-27T07:12:19.397Z,982.87
2018-03-27T07:13:19.377Z,982.87
2018-03-27T07:14:19.356Z,982.82
2018-03-27T07:15:19.301Z,982.87
2018-03-27T07:16:19.224Z,982.86
2018-03-27T07:17:19.222Z,982.86
2018-03-27T07:18:19.140Z,982.87
2018-03-27T07:19:19.140Z,982.86
2018-03-27T07:20:19.090Z,982.86
2018-03-27T07:21:19.075Z,982.86
2018-03-27T07:22:19.024Z,982.87
2018-03-27T07:23:18.966Z,982.89
2018-03-27T07:24:18.969Z,982.85
2018-03-27T07:25:18.897Z,982.88
2018-03-27T07:26:18.828Z,982.89
2018-03-27T07:27:18.804Z,982.89
2018-03-27T07:28:18.790Z,982.88
2018-03-27T07:29:18.715Z,982.88
2018-03-27T07:30:18.670Z,982.88
2018-03-27T07:31:18.664Z,982.88
2018-03-27T07:32:18.587Z,982.89
2018-03-27T07:33:18.575Z,982.88
2018-03-27T07:34:18.517Z,982.88
2018-03-27T07:35:18.479Z,982.88
2018-03-27T07:36:18.444Z,982.86
2018-03-27T07:37:18.391Z,982.85
2018-03-27T07:38:18.354Z,982.86
2018-03-27T07:39:18.375Z,982.86
2018-03-27T07:40:18.270Z,982.85
2018-03-27T07:41:18.213Z,982.85
2018-03-27T07:42:18.223Z,982.84
2018-03-27T07:43:18.186Z,982.85
2018-03-27T07:44:18.154Z,982.83
2018-03-27T07:45:18.068Z,982.79
2018-03-27T07:46:18.065Z,982.84
2018-03-27T07:47:17.981Z,982.81
2018-03-27T07:48:17.933Z,982.83
2018-03-27T07:49:18.482Z,982.84
2018-03-27T07:50:17.881Z,982.84
2018-03-27T07:51:17.840Z,982.85
2018-03-27T07:52:17.806Z,982.86
2018-03-27T07:53:17.778Z,982.88
2018-03-27T07:54:17.724Z,982.84
2018-03-27T07:55:17.708Z,982.90
2018-03-27T07:56:17.634Z,982.83
2018-03-27T07:57:17.601Z,982.88
2018-03-27T07:58:17.560Z,982.90
2018-03-27T07:59:17.505Z,982.91
2018-03-27T08:00:17.496Z,982.96
2018-03-27T08:01:17.476Z,982.94
2018-03-27T08:02:17.410Z,982.94
2018-03-27T08:03:17.341Z,982.96
2018-03-27T08:04:17.308Z,982.94
2018-03-27T08:05:17.319Z,982.90
2018-03-27T08:06:17.224Z,982.87
2018-03-27T08:07:17.193Z,982.90
2018-03-27T08:08:17.162Z,982.87
2018-03-27T08:09:17.107Z,982.87
2018-03-27T08:10:17.087Z,982.86
2018-03-27T08:11:17.047Z,982.84
2018-03-27T08:12:17.013Z,982.81
2018-03-27T08:13:16.968Z,982.80
2018-03-27T08:14:16.913Z,982.79
2018-03-27T08:15:16.856Z,982.79
2018-03-27T08:16:16.863Z,982.75
2018-03-27T08:17:16.792Z,982.75
2018-03-27T08:18:16.748Z,982.76
2018-03-27T08:19:16.792Z,982.72
2018-03-27T08:20:16.668Z,982.69
2018-03-27T08:21:16.638Z,982.74
2018-03-27T08:22:16.601Z,982.71
2018-03-27T08:23:16.569Z,982.70
2018-03-27T08:24:16.645Z,982.66
2018-03-27T08:25:16.464Z,982.69
2018-03-27T08:26:16.468Z,982.69
2018-03-27T08:27:16.438Z,982.68
2018-03-27T08:28:16.339Z,982.64
2018-03-27T08:29:16.345Z,982.65
2018-03-27T08:30:16.308Z,982.63
2018-03-27T08:31:18.083Z,982.62
2018-03-27T08:32:16.202Z,982.63
2018-03-27T08:33:16.159Z,982.67
2018-03-27T08:34:16.106Z,982.65
2018-03-27T08:35:16.171Z,982.67
2018-03-27T08:36:16.086Z,982.61
2018-03-27T08:37:16.035Z,982.59
2018-03-27T08:38:15.966Z,982.65
2018-03-27T08:39:15.961Z,982.61
2018-03-27T08:40:15.890Z,982.60
2018-03-27T08:41:15.876Z,982.62
2018-03-27T08:42:15.827Z,982.60
2018-03-27T08:43:15.764Z,982.59
2018-03-27T08:44:15.726Z,982.59
2018-03-27T08:45:15.734Z,982.59
2018-03-27T08:46:15.665Z,982.55
2018-03-27T08:47:15.645Z,982.57
2018-03-27T08:48:15.651Z,982.58
2018-03-27T08:49:15.547Z,982.57
2018-03-27T08:50:15.520Z,982.58
2018-03-27T08:51:15.464Z,982.54
2018-03-27T08:52:15.431Z,982.54
2018-03-27T08:53:15.388Z,982.48
2018-03-27T08:54:15.382Z,982.45
2018-03-27T08:55:15.346Z,982.47
2018-03-27T08:56:15.319Z,982.46
2018-03-27T08:57:15.262Z,982.45
2018-03-27T08:58:15.299Z,982.40
2018-03-27T08:59:15.170Z,982.39
2018-03-27T09:00:15.167Z,982.39
2018-03-27T09:01:15.125Z,982.35
2018-03-27T09:02:15.097Z,982.44
2018-03-27T09:03:15.034Z,982.40
2018-03-27T09:04:15.011Z,982.40
2018-03-27T09:05:15.078Z,982.41
2018-03-27T09:06:15.000Z,982.36
2018-03-27T09:07:14.902Z,982.39
2018-03-27T09:08:14.927Z,982.43
2018-03-27T09:09:14.845Z,982.44
2018-03-27T09:10:14.818Z,982.41
2018-03-27T09:11:14.768Z,982.44
2018-03-27T09:12:14.734Z,982.47
2018-03-27T09:13:14.720Z,982.49
2018-03-27T09:14:14.672Z,982.46
2018-03-27T09:15:14.659Z,982.51
2018-03-27T09:16:14.633Z,982.49
2018-03-27T09:17:14.589Z,982.49
2018-03-27T09:18:14.523Z,982.42
2018-03-27T09:19:14.528Z,982.42
2018-03-27T09:20:14.460Z,982.43
2018-03-27T09:21:14.429Z,982.41
2018-03-27T09:22:14.417Z,982.43
2018-03-27T09:23:14.357Z,982.36
2018-03-27T09:24:14.347Z,982.39
2018-03-27T09:25:14.334Z,982.40
2018-03-27T09:26:14.257Z,982.39
2018-03-27T09:27:14.268Z,982.38
2018-03-27T09:28:14.297Z,982.38
2018-03-27T09:29:14.180Z,982.32
2018-03-27T09:30:14.174Z,982.34
2018-03-27T09:31:14.114Z,982.32
2018-03-27T09:32:14.091Z,982.29
2018-03-27T09:33:14.064Z,982.24
2018-03-27T09:34:14.035Z,982.27
2018-03-27T09:35:13.996Z,982.23
2018-03-27T09:36:13.956Z,982.23
2018-03-27T09:37:13.931Z,982.19
2018-03-27T09:38:13.911Z,982.22
2018-03-27T09:39:13.887Z,982.19
2018-03-27T09:40:13.874Z,982.20
2018-03-27T09:41:13.826Z,982.20
2018-03-27T09:42:13.797Z,982.22
2018-03-27T09:43:13.743Z,982.25
2018-03-27T09:44:13.784Z,982.22
2018-03-27T09:45:13.674Z,982.22
2018-03-27T09:46:13.670Z,982.22
2018-03-27T09:47:13.623Z,982.22
2018-03-27T09:48:13.611Z,982.22
2018-03-27T09:49:13.610Z,982.20
2018-03-27T09:50:13.538Z,982.20
2018-03-27T09:51:13.508Z,982.21
2018-03-27T09:52:13.531Z,982.18
2018-03-27T09:53:13.435Z,982.16
2018-03-27T09:54:13.426Z,982.19
2018-03-27T09:55:13.376Z,982.19
2018-03-27T09:56:13.345Z,982.20
2018-03-27T09:57:13.305Z,982.19
2018-03-27T09:58:13.274Z,982.17
2018-03-27T09:59:13.248Z,982.22
2018-03-27T10:00:13.214Z,982.17
2018-03-27T10:01:13.196Z,982.13
2018-03-27T10:02:13.143Z,982.18
2018-03-27T10:03:13.180Z,982.15
2018-03-27T10:04:13.129Z,982.16
2018-03-27T10:05:13.058Z,982.19
2018-03-27T10:06:13.015Z,982.19
2018-03-27T10:07:12.993Z,982.18
2018-03-27T10:08:12.963Z,982.22
2018-03-27T10:09:12.923Z,982.19
2018-03-27T10:10:12.920Z,982.17
2018-03-27T10:11:12.887Z,982.17
2018-03-27T10:12:12.846Z,982.17
2018-03-27T10:13:12.797Z,982.17
2018-03-27T10:14:12.777Z,982.11
2018-03-27T10:15:12.744Z,982.09
2018-03-27T10:16:12.721Z,982.05
2018-03-27T10:17:12.668Z,982.09
2018-03-27T10:18:12.678Z,982.06
2018-03-27T10:19:12.623Z,982.01
2018-03-27T10:20:12.614Z,982.00
2018-03-27T10:21:12.565Z,982.00
2018-03-27T10:22:12.556Z,981.97
2018-03-27T10:23:12.515Z,981.96
2018-03-27T10:24:12.467Z,981.93
2018-03-27T10:25:12.463Z,981.94
2018-03-27T10:26:12.406Z,981.93
2018-03-27T10:27:12.371Z,981.98
2018-03-27T10:28:12.334Z,981.91
2018-03-27T10:29:12.334Z,981.93
2018-03-27T10:30:12.285Z,981.89
2018-03-27T10:31:12.274Z,981.91
2018-03-27T10:32:12.214Z,981.88
2018-03-27T10:33:12.190Z,981.88
2018-03-27T10:34:12.181Z,981.84
2018-03-27T10:35:12.136Z,981.87
2018-03-27T10:36:12.124Z,981.88
2018-03-27T10:37:12.634Z,981.88
2018-03-27T10:38:12.049Z,981.88
2018-03-27T10:39:12.050Z,981.86
2018-03-27T10:40:11.972Z,981.85
2018-03-27T10:41:11.950Z,981.83
2018-03-27T10:42:11.916Z,981.82
2018-03-27T10:43:11.884Z,981.84
2018-03-27T10:44:11.854Z,981.81
2018-03-27T10:45:11.829Z,981.81
2018-03-27T10:46:11.798Z,981.78
2018-03-27T10:47:11.776Z,981.74
2018-03-27T10:48:11.726Z,981.75
2018-03-27T10:49:11.689Z,981.72
2018-03-27T10:50:11.822Z,981.75
2018-03-27T10:51:11.634Z,981.72
2018-03-27T10:52:11.675Z,981.73
2018-03-27T10:53:11.565Z,981.72
2018-03-27T10:54:11.545Z,981.70
2018-03-27T10:55:11.518Z,981.69
2018-03-27T10:56:11.488Z,981.67
2018-03-27T10:57:11.445Z,981.65
2018-03-27T10:58:11.432Z,981.68
2018-03-27T10:59:11.443Z,981.67
2018-03-27T11:00:11.362Z,981.69
2018-03-27T11:01:11.348Z,981.67
2018-03-27T11:02:11.316Z,981.68
2018-03-27T11:03:11.282Z,981.64
2018-03-27T11:04:11.240Z,981.61
2018-03-27T11:05:11.213Z,981.60
2018-03-27T11:06:11.173Z,981.60
2018-03-27T11:07:11.140Z,981.60
2018-03-27T11:08:11.106Z,981.58
2018-03-27T11:09:11.076Z,981.54
2018-03-27T11:10:11.040Z,981.59
2018-03-27T11:11:11.023Z,981.52
2018-03-27T11:12:11.009Z,981.55
2018-03-27T11:13:10.942Z,981.56
2018-03-27T11:14:10.898Z,981.57
2018-03-27T11:15:10.875Z,981.54
2018-03-27T11:16:10.852Z,981.59
2018-03-27T11:17:10.797Z,981.53
2018-03-27T11:18:10.784Z,981.52
2018-03-27T11:19:10.737Z,981.48
2018-03-27T11:20:10.701Z,981.49
2018-03-27T11:21:10.677Z,981.48
2018-03-27T11:22:10.630Z,981.46
2018-03-27T11:23:10.602Z,981.46
2018-03-27T11:24:10.561Z,981.47
2018-03-27T11:25:10.531Z,981.44
2018-03-27T11:26:10.494Z,981.44
2018-03-27T11:27:10.498Z,981.48
2018-03-27T11:28:10.432Z,981.41
2018-03-27T11:29:10.457Z,981.40
2018-03-27T11:30:10.354Z,981.36
2018-03-27T11:31:10.323Z,981.37
2018-03-27T11:32:10.292Z,981.34
2018-03-27T11:33:10.260Z,981.36
2018-03-27T11:34:10.209Z,981.33
2018-03-27T11:35:10.300Z,981.35
2018-03-27T11:36:10.192Z,981.37
2018-03-27T11:37:10.158Z,981.36
2018-03-27T11:38:10.086Z,981.36
2018-03-27T11:39:10.066Z,981.34
2018-03-27T11:40:10.025Z,981.36
2018-03-27T11:41:10.034Z,981.33
2018-03-27T11:42:09.972Z,981.35
2018-03-27T11:43:09.919Z,981.37
2018-03-27T11:44:09.892Z,981.32
2018-03-27T11:45:09.843Z,981.33
2018-03-27T11:46:09.840Z,981.28
2018-03-27T11:47:09.804Z,981.25
2018-03-27T11:48:09.750Z,981.28
2018-03-27T11:49:09.708Z,981.22
2018-03-27T11:50:09.707Z,981.31
2018-03-27T11:51:09.683Z,981.28
2018-03-27T11:52:09.619Z,981.29
2018-03-27T11:53:09.577Z,981.29
2018-03-27T11:54:09.576Z,981.28
2018-03-27T11:55:09.509Z,981.29
2018-03-27T11:56:09.484Z,981.27
2018-03-27T11:57:09.454Z,981.25
2018-03-27T11:58:09.419Z,981.23
2018-03-27T11:59:09.376Z,981.22
2018-03-27T12:00:09.332Z,981.22
2018-03-27T12:01:09.382Z,981.15
2018-03-27T12:02:09.299Z,981.20
2018-03-27T12:03:09.228Z,981.20
2018-03-27T12:04:09.188Z,981.19
2018-03-27T12:05:09.183Z,981.20
2018-03-27T12:06:09.135Z,981.18
2018-03-27T12:07:09.109Z,981.23
2018-03-27T12:08:09.052Z,981.29
2018-03-27T12:09:09.032Z,981.24
2018-03-27T12:10:09.570Z,981.22
2018-03-27T12:11:08.938Z,981.19
2018-03-27T12:12:08.913Z,981.18
2018-03-27T12:13:08.863Z,981.15
2018-03-27T12:14:08.833Z,981.13
2018-03-27T12:15:08.823Z,981.12
2018-03-27T12:16:08.753Z,981.10
2018-03-27T12:17:08.729Z,981.10
2018-03-27T12:18:08.740Z,981.06
2018-03-27T12:19:08.728Z,981.06
2018-03-27T12:20:08.634Z,981.05
2018-03-27T12:21:08.572Z,981.04
2018-03-27T12:22:08.551Z,981.04
2018-03-27T12:23:08.511Z,981.03
2018-03-27T12:24:08.531Z,981.00
2018-03-27T12:25:08.424Z,980.96
2018-03-27T12:26:08.395Z,980.96
2018-03-27T12:27:08.352Z,980.97
2018-03-27T12:28:08.360Z,980.90
2018-03-27T12:29:08.291Z,980.88
2018-03-27T12:30:08.241Z,980.86
2018-03-27T12:31:08.211Z,980.83
2018-03-27T12:32:08.190Z,980.85
2018-03-27T12:33:08.141Z,980.78
2018-03-27T12:34:08.131Z,980.75
2018-03-27T12:35:08.069Z,980.74
2018-03-27T12:36:08.043Z,980.76
2018-03-27T12:37:08.029Z,980.75
2018-03-27T12:38:07.994Z,980.70
2018-03-27T12:39:07.966Z,980.79
2018-03-27T12:40:07.912Z,980.72
2018-03-27T12:41:07.879Z,980.73
2018-03-27T12:42:07.844Z,980.79
2018-03-27T12:43:07.819Z,980.71
2018-03-27T12:44:07.820Z,980.76
2018-03-27T12:45:07.795Z,980.71
2018-03-27T12:46:07.709Z,980.64
2018-03-27T12:47:07.684Z,980.67
2018-03-27T12:48:07.667Z,980.63
2018-03-27T12:49:07.632Z,980.62
2018-03-27T12:50:07.580Z,980.62
2018-03-27T12:51:07.556Z,980.61
2018-03-27T12:52:07.534Z,980.64
2018-03-27T12:53:07.514Z,980.59
2018-03-27T12:54:07.459Z,980.57
2018-03-27T12:55:07.445Z,980.58
2018-03-27T12:56:07.436Z,980.56
2018-03-27T12:57:07.379Z,980.59
2018-03-27T12:58:07.340Z,980.55
2018-03-27T12:59:07.363Z,980.53
2018-03-27T13:00:07.267Z,980.52
2018-03-27T13:01:07.227Z,980.51
2018-03-27T13:02:07.214Z,980.52
2018-03-27T13:03:07.179Z,980.52
2018-03-27T13:04:07.116Z,980.49
2018-03-27T13:05:08.140Z,980.48
2018-03-27T13:06:07.086Z,980.46
2018-03-27T13:07:07.024Z,980.43
2018-03-27T13:08:07.017Z,980.43
2018-03-27T13:09:06.955Z,980.44
2018-03-27T13:10:06.952Z,980.38
2018-03-27T13:11:06.919Z,980.39
2018-03-27T13:12:06.851Z,980.38
2018-03-27T13:13:06.841Z,980.38
2018-03-27T13:14:06.782Z,980.40
2018-03-27T13:15:06.762Z,980.40
2018-03-27T13:16:06.716Z,980.34
2018-03-27T13:17:06.705Z,980.29
2018-03-27T13:18:06.704Z,980.24
2018-03-27T13:19:06.665Z,980.23
2018-03-27T13:20:06.655Z,980.17
2018-03-27T13:21:06.574Z,980.18
2018-03-27T13:22:06.556Z,980.12
2018-03-27T13:23:06.457Z,980.09
2018-03-27T13:24:06.428Z,980.06
2018-03-27T13:25:06.419Z,980.13
2018-03-27T13:26:06.367Z,980.11
2018-03-27T13:27:06.333Z,980.07
2018-03-27T13:28:06.291Z,980.10
2018-03-27T13:29:06.272Z,980.14
2018-03-27T13:30:06.244Z,980.09
2018-03-27T13:31:06.229Z,980.13
2018-03-27T13:32:06.192Z,980.16
2018-03-27T13:33:06.127Z,980.16
2018-03-27T13:34:06.102Z,980.17
2018-03-27T13:35:06.070Z,980.16
2018-03-27T13:36:06.075Z,980.17
2018-03-27T13:37:06.007Z,980.16
2018-03-27T13:38:06.004Z,980.14
2018-03-27T13:39:05.960Z,980.10
2018-03-27T13:40:05.898Z,980.12
2018-03-27T13:41:05.888Z,980.08
2018-03-27T13:42:05.886Z,980.09
2018-03-27T13:43:05.807Z,980.07
2018-03-27T13:44:05.778Z,980.02
2018-03-27T13:45:05.748Z,979.98
2018-03-27T13:46:05.719Z,979.97
2018-03-27T13:47:05.704Z,979.96
2018-03-27T13:48:05.654Z,979.98
2018-03-27T13:49:05.646Z,979.97
2018-03-27T13:50:05.588Z,979.98
2018-03-27T13:51:05.562Z,979.94
2018-03-27T13:52:05.518Z,979.93
2018-03-27T13:53:05.482Z,979.91
2018-03-27T13:54:05.459Z,979.87
2018-03-27T13:55:05.429Z,979.88
2018-03-27T13:56:05.386Z,979.84